^^
Station Historical Data
Daily Summary for March 19, 2017 Units:  English    Metric   Both
« Previous Day
Next Day »
Daily Weekly Monthly Yearly Custom
  High: Low: Average:
Temperature: 44.8 °F 31.5 °F 37.8 °F
Dew Point: 27.7 °F 17.1 °F 23.9 °F
Humidity: 78% 35% 59%
Wind Speed: 6.0mph 0.0mph 2mph
Wind Gust: 15.0mph - -
Wind- - West
Pressure: 30.23 in 30.13 in -
Precipitation: 0.02 in    
Historical Graphs
 
 
Tabular Data for March 19, 2017
Time Temperature Dew Point Pressure Wind Wind Speed Wind Gust Humidity Rainfall Rate (Hourly) Conditions
00:00 34.5 °F 27.1 °F 30.20 in Calm   3.0 mph 74% 0.00 in RA
00:15 34.4 °F 27.3 °F 30.21 in Calm   2.0 mph 75% 0.00 in BKN
00:30 34.3 °F 27.5 °F 30.20 in Calm   4.0 mph 76% 0.00 in BKN
00:45 34.1 °F 27.3 °F 30.20 in NE 1.0 mph 7.0 mph 76% 0.00 in BKN
01:00 33.8 °F 27.4 °F 30.19 in ENE 2.0 mph 7.0 mph 77% 0.00 in BKN
02:15 32.9 °F 26.8 °F 30.18 in NNW 1.0 mph 9.0 mph 78% 0.00 in BKN
02:30 32.8 °F 26.4 °F 30.19 in NW 1.0 mph 6.0 mph 77% 0.00 in BKN
02:45 32.8 °F 26.4 °F 30.19 in NW 3.0 mph 8.0 mph 77% 0.00 in BKN
03:00 32.6 °F 26.2 °F 30.19 in NW 1.0 mph 7.0 mph 77% 0.00 in BKN
03:15 32.2 °F 26.1 °F 30.19 in NNE 2.0 mph 7.0 mph 78% 0.00 in BKN
03:30 32.0 °F 25.9 °F 30.18 in North 3.0 mph 10.0 mph 78% 0.00 in BKN
03:45 32.0 °F 25.9 °F 30.18 in NNW 1.0 mph 8.0 mph 78% 0.00 in BKN
04:00 32.1 °F 25.7 °F 30.19 in NNE 2.0 mph 10.0 mph 77% 0.00 in BKN
04:15 32.1 °F 25.7 °F 30.19 in NNW 1.0 mph 8.0 mph 77% 0.00 in BKN
04:30 32.1 °F 25.4 °F 30.19 in NNW 1.0 mph 12.0 mph 76% 0.00 in BKN
04:45 32.1 °F 25.4 °F 30.19 in NNW 1.0 mph 8.0 mph 76% 0.00 in BKN
05:00 32.2 °F 25.5 °F 30.20 in North 2.0 mph 12.0 mph 76% 0.00 in BKN
05:15 32.2 °F 25.5 °F 30.20 in NNW 3.0 mph 8.0 mph 76% 0.00 in BKN
05:30 32.2 °F 25.1 °F 30.20 in NNW 2.0 mph 9.0 mph 75% 0.00 in BKN
05:45 32.1 °F 25.1 °F 30.20 in NNW 2.0 mph 8.0 mph 75% 0.00 in BKN
06:00 32.0 °F 25.3 °F 30.20 in NNW 1.0 mph 7.0 mph 76% 0.00 in BKN
06:15 31.8 °F 25.1 °F 30.21 in NNW 2.0 mph 8.0 mph 76% 0.00 in BKN
06:30 31.6 °F 24.9 °F 30.21 in North 1.0 mph 12.0 mph 76% 0.00 in BKN
06:45 31.6 °F 24.9 °F 30.21 in North 1.0 mph 12.0 mph 76% 0.00 in BKN
07:00 31.6 °F 24.9 °F 30.21 in North 2.0 mph 8.0 mph 76% 0.00 in BKN
07:15 31.5 °F 24.8 °F 30.21 in North 2.0 mph 8.0 mph 76% 0.00 in BKN
07:30 31.6 °F 25.2 °F 30.21 in NNW 3.0 mph 9.0 mph 77% 0.00 in BKN
07:45 31.9 °F 25.2 °F 30.21 in NW 2.0 mph 8.0 mph 76% 0.00 in BKN
08:00 32.1 °F 25.4 °F 30.21 in North 2.0 mph 10.0 mph 76% 0.00 in BKN
08:15 32.4 °F 25.4 °F 30.21 in NNW 2.0 mph 8.0 mph 75% 0.00 in BKN
08:30 32.7 °F 25.6 °F 30.21 in NNW 2.0 mph 10.0 mph 75% 0.00 in BKN
08:45 33.0 °F 25.6 °F 30.21 in NNW 5.0 mph 12.0 mph 74% 0.00 in BKN
09:00 33.3 °F 25.9 °F 30.21 in North 3.0 mph 8.0 mph 74% 0.00 in BKN
09:15 33.9 °F 26.2 °F 30.22 in North 2.0 mph 10.0 mph 73% 0.00 in BKN
09:30 34.8 °F 26.4 °F 30.22 in North 1.0 mph 12.0 mph 71% 0.00 in BKN
09:45 35.9 °F 27.0 °F 30.22 in North 3.0 mph 9.0 mph 70% 0.00 in BKN
10:00 36.9 °F 27.3 °F 30.23 in NNW 2.0 mph 12.0 mph 68% 0.00 in BKN
10:15 37.3 °F 27.3 °F 30.23 in North 3.0 mph 14.0 mph 67% 0.00 in SCT
10:30 37.8 °F 27.4 °F 30.23 in North 3.0 mph 9.0 mph 66% 0.00 in SCT
10:45 38.9 °F 27.7 °F 30.22 in NNW 3.0 mph 12.0 mph 64% 0.00 in SCT
11:00 39.3 °F 27.7 °F 30.23 in North 2.0 mph 10.0 mph 63% 0.01 in SCT
11:15 39.5 °F 27.2 °F 30.23 in NNE 6.0 mph 10.0 mph 61% 0.00 in SCT
11:30 40.0 °F 27.6 °F 30.22 in NNW 3.0 mph 12.0 mph 61% 0.00 in SCT
11:45 40.1 °F 26.5 °F 30.22 in North 6.0 mph 15.0 mph 58% 0.01 in RA
12:00 40.8 °F 27.6 °F 30.22 in NNW 2.0 mph 12.0 mph 59% 0.00 in SCT
12:15 41.5 °F 26.5 °F 30.21 in NW 3.0 mph 12.0 mph 55% 0.00 in SCT
12:30 41.7 °F 27.2 °F 30.21 in NW 1.0 mph 15.0 mph 56% 0.00 in SCT
12:45 42.3 °F 27.3 °F 30.20 in Calm   9.0 mph 55% 0.00 in SCT
13:00 42.0 °F 27.5 °F 30.20 in NNW 3.0 mph 10.0 mph 56% 0.00 in SCT
13:15 42.3 °F 27.3 °F 30.20 in North 5.0 mph 12.0 mph 55% 0.00 in FEW
13:30 43.0 °F 25.1 °F 30.20 in NNW 5.0 mph 9.0 mph 49% 0.00 in FEW
13:45 43.4 °F 25.0 °F 30.19 in NNE 5.0 mph 12.0 mph 48% 0.00 in FEW
14:00 43.7 °F 25.3 °F 30.18 in NW 3.0 mph 12.0 mph 48% 0.00 in FEW
14:15 42.7 °F 25.8 °F 30.18 in NW 3.0 mph 12.0 mph 51% 0.00 in FEW
14:30 43.1 °F 25.7 °F 30.17 in North 3.0 mph 10.0 mph 50% 0.00 in FEW
14:45 43.3 °F 24.9 °F 30.16 in NW 1.0 mph 12.0 mph 48% 0.00 in FEW
15:00 43.8 °F 23.3 °F 30.16 in NW 3.0 mph 12.0 mph 44% 0.00 in FEW
15:15 43.6 °F 21.4 °F 30.16 in NNW 3.0 mph 13.0 mph 41% 0.00 in CLR
15:30 43.9 °F 20.5 °F 30.16 in NNW 5.0 mph 12.0 mph 39% 0.00 in CLR
15:45 43.9 °F 21.1 °F 30.15 in NNW 5.0 mph 12.0 mph 40% 0.00 in CLR
16:00 44.3 °F 20.9 °F 30.15 in North 3.0 mph 14.0 mph 39% 0.00 in CLR
16:15 44.3 °F 19.6 °F 30.15 in North 2.0 mph 14.0 mph 37% 0.00 in CLR
16:30 44.4 °F 19.1 °F 30.14 in NNW 3.0 mph 14.0 mph 36% 0.00 in CLR
16:45 44.8 °F 20.1 °F 30.14 in NW 3.0 mph 9.0 mph 37% 0.00 in CLR
17:00 44.6 °F 19.3 °F 30.14 in NNW 6.0 mph 11.0 mph 36% 0.00 in CLR
17:15 44.8 °F 18.7 °F 30.13 in WNW 5.0 mph 8.0 mph 35% 0.00 in CLR
17:30 44.5 °F 19.8 °F 30.14 in NW 3.0 mph 10.0 mph 37% 0.00 in CLR
17:45 44.7 °F 21.2 °F 30.14 in NNW 2.0 mph 10.0 mph 39% 0.00 in CLR
18:00 44.7 °F 20.6 °F 30.14 in NNW 2.0 mph 10.0 mph 38% 0.00 in CLR
18:15 44.5 °F 20.4 °F 30.14 in NNE 2.0 mph 8.0 mph 38% 0.00 in CLR
18:30 44.3 °F 21.5 °F 30.15 in NW 1.0 mph 7.0 mph 40% 0.00 in CLR
18:45 43.5 °F 23.5 °F 30.15 in NNW 1.0 mph 6.0 mph 45% 0.00 in CLR
19:00 42.5 °F 22.1 °F 30.16 in NNW 1.0 mph 6.0 mph 44% 0.00 in CLR
19:15 41.5 °F 21.8 °F 30.16 in NNW 1.0 mph 9.0 mph 45% 0.00 in CLR
19:30 40.9 °F 22.7 °F 30.17 in Calm   5.0 mph 48% 0.00 in CLR
19:45 40.1 °F 21.0 °F 30.17 in NNW 1.0 mph 4.0 mph 46% 0.00 in CLR
20:00 40.4 °F 18.5 °F 30.17 in NW 2.0 mph 8.0 mph 41% 0.00 in CLR
20:15 40.0 °F 17.6 °F 30.17 in NNW 1.0 mph 7.0 mph 40% 0.00 in CLR
20:30 39.5 °F 17.1 °F 30.17 in NW 1.0 mph 5.0 mph 40% 0.00 in CLR
20:45 39.5 °F 18.3 °F 30.18 in Calm   5.0 mph 42% 0.00 in CLR
21:00 39.1 °F 17.9 °F 30.18 in NNW 1.0 mph 3.0 mph 42% 0.00 in CLR
21:15 38.8 °F 17.7 °F 30.18 in Calm   4.0 mph 42% 0.00 in CLR
21:30 38.6 °F 18.0 °F 30.18 in NNW 1.0 mph 2.0 mph 43% 0.00 in CLR
21:45 38.3 °F 19.8 °F 30.18 in Calm   2.0 mph 47% 0.00 in CLR
22:00 38.0 °F 21.0 °F 30.18 in NNE 1.0 mph 3.0 mph 50% 0.00 in CLR
22:15 37.6 °F 20.6 °F 30.18 in Calm   2.0 mph 50% 0.00 in RA
22:45 37.2 °F 21.2 °F 30.17 in Calm   2.0 mph 52% 0.00 in CLR
23:00 37.0 °F 20.5 °F 30.17 in Calm   4.0 mph 51% 0.00 in CLR
23:15 36.8 °F 20.3 °F 30.17 in Calm   3.0 mph 51% 0.00 in CLR
23:30 36.7 °F 19.8 °F 30.17 in NNE 1.0 mph 3.0 mph 50% 0.00 in CLR
23:45 36.3 °F 19.4 °F 30.17 in Calm   4.0 mph 50% 0.00 in CLR
TarryTown NY Weather
Compliments of Weather Underground - 1.5 mb